Aérodrome :
LOGIN :

S'inscrire | Disclaimer

   EN    FR    IT 

 










Légende :    VFR   VFR Marginal   IFR   IFR Intensif   IFR Très Intensif
Visi : 
Plafond : 
>= 8 km
>= 3000ft
5 à 8 km
1000 à 3000 ft
1500m à 5 km
500 à 1000 ft
800 à 1500m
200 à 500 ft
< 800m
< 200 ft
Symboles :   Orages  Brouillard  Fortes neiges  Fortes précipitations  Vent > 20 kt
SIGMETs :   Divers  Orages  Givrage  Turbulence  Onde Orograph.  Cendres Volcan.







- Altitude de l'aérodrome : 194 ft


EBCV - Chièvres

DERNIER METAR :
  • 270555Z AUTO 12003KT 9999 BKN150/// 06/04 Q1013 BLU

METARs EXPIRÉS :
  • 270525Z AUTO VRB01KT 9999 BKN160/// 05/03 Q1013 BLU
  • 270455Z AUTO 12004KT 9999 FEW160/// BKN220/// 05/03 Q1013 BLU
  • 270425Z AUTO VRB02KT 9999 FEW170/// BKN220/// 05/02 Q1014 BLU
  • 270355Z AUTO VRB02KT 9999 BKN180/// 05/03 Q1014 BLU
  • 270325Z AUTO VRB02KT 9999 BKN180/// BKN230/// 05/02 Q1014 BLU

TAF TAF EBCV
Valide du 26 à 19h jusqu'au 27 à 07h UTC


261541Z 2619/2707 25008KT 9999 FEW035
BECMG 2622/2624 19004KT 9999 FEW120 SCT150
BECMG 2703/2705 16005KT 9999 FEW035 SCT080 BKN140 BY EBWM
Pas de NOTAMs connus pour ce terrain.



MET'MAP, la Météo Aéronautique d'un coup d'oeil ! - Copyright ORBIFLY Décembre 2007 - Disclaimer

ORBIFLY MET'MAP TEAM :

Programmation & Développement : Alexandra Zaïnal
Conception & Développement : Baudouin d'Aumeries
Co-Programmation & Développement : Marc-Olivier Méhu
Soutien technique & logistique : Manuel Goepfert

Contact : metmap@orbifly.com




SOURCES & CREDITS :

   NOAA